Time;durP1;ratioP1;P1;durP2;ratioP2;P2;SDS_P1;SDS_P2;PMS_P1;PMS_P2;Temp;Humidity;BMP_temperature;BMP_pressure;BME280_temperature;BME280_humidity;BME280_pressure;Samples;Min_cycle;Max_cycle;Signal;HPM_P1;HPM_P2
2024/03/29 00:00:54;;;;;;;5.78;1.10;;;10.50;99.90;;;;;;5021024;28;20049;-94
2024/03/29 00:03:20;;;;;;;5.18;1.63;;;10.50;99.90;;;;;;5018671;28;20033;-96
2024/03/29 00:05:46;;;;;;;1.98;1.08;;;10.50;99.90;;;;;;5017429;28;20041;-93
2024/03/29 00:08:11;;;;;;;7.82;1.00;;;10.40;99.90;;;;;;5010379;28;20030;-94
2024/03/29 00:10:38;;;;;;;3.05;1.55;;;10.40;99.90;;;;;;5017538;28;20030;-95
2024/03/29 00:13:04;;;;;;;7.32;1.45;;;10.40;99.90;;;;;;5027351;28;20091;-93
2024/03/29 00:15:31;;;;;;;11.43;1.27;;;10.40;99.90;;;;;;5001348;28;20078;-93
2024/03/29 00:17:57;;;;;;;2.83;1.13;;;10.40;99.90;;;;;;4994310;28;20122;-95
2024/03/29 00:20:23;;;;;;;6.78;1.10;;;10.40;99.90;;;;;;4994971;28;20054;-95
2024/03/29 00:22:49;;;;;;;5.38;1.35;;;10.50;99.90;;;;;;4995925;28;20022;-94
2024/03/29 00:25:14;;;;;;;7.28;1.40;;;10.40;99.90;;;;;;4995856;28;20157;-95
2024/03/29 00:27:40;;;;;;;6.70;1.20;;;10.50;99.90;;;;;;4995438;28;20022;-95
2024/03/29 00:30:06;;;;;;;6.18;1.20;;;10.40;99.90;;;;;;5007902;28;20054;-93
2024/03/29 00:32:32;;;;;;;6.15;1.08;;;10.50;99.90;;;;;;5012119;28;20088;-93
2024/03/29 00:34:58;;;;;;;8.32;1.77;;;10.50;99.90;;;;;;5015128;28;20425;-94
2024/03/29 00:37:23;;;;;;;4.70;0.93;;;10.50;99.90;;;;;;5015614;28;20105;-93
2024/03/29 00:39:49;;;;;;;7.38;1.42;;;10.50;99.90;;;;;;5015597;28;20480;-96
2024/03/29 00:42:16;;;;;;;9.60;1.00;;;10.50;99.90;;;;;;5015007;28;20026;-94
2024/03/29 00:44:42;;;;;;;7.93;1.40;;;10.50;99.90;;;;;;5013781;28;20029;-93
2024/03/29 00:47:08;;;;;;;6.47;1.25;;;10.50;99.90;;;;;;5014635;28;20088;-92
2024/03/29 00:49:34;;;;;;;5.65;1.08;;;10.50;99.90;;;;;;5013812;28;20030;-94
2024/03/29 00:52:00;;;;;;;5.18;1.10;;;10.40;99.90;;;;;;5013348;28;20064;-94
2024/03/29 00:54:30;;;;;;;5.72;1.05;;;10.40;99.90;;;;;;5011323;28;20068;-93
2024/03/29 00:56:55;;;;;;;5.60;1.48;;;10.40;99.90;;;;;;5013390;28;20687;-92
2024/03/29 00:59:21;;;;;;;4.13;1.60;;;10.50;99.90;;;;;;5013144;28;20037;-93
2024/03/29 01:01:47;;;;;;;7.10;0.98;;;10.40;99.90;;;;;;5016723;28;20049;-92
2024/03/29 01:04:13;;;;;;;4.25;1.20;;;10.40;99.90;;;;;;5017689;28;20026;-92
2024/03/29 01:06:40;;;;;;;8.68;1.30;;;10.50;99.90;;;;;;5013970;28;20026;-92
2024/03/29 01:09:06;;;;;;;2.17;1.15;;;10.50;99.90;;;;;;5013747;28;20116;-93
2024/03/29 01:11:32;;;;;;;5.85;1.10;;;10.50;99.90;;;;;;5013764;28;20037;-92
2024/03/29 01:14:00;;;;;;;3.67;1.30;;;10.50;99.90;;;;;;5010430;28;20030;-94
2024/03/29 01:16:26;;;;;;;8.35;1.40;;;10.50;99.90;;;;;;5013078;28;20433;-94
2024/03/29 01:18:52;;;;;;;4.85;1.40;;;10.50;99.90;;;;;;5013824;28;20034;-95
2024/03/29 01:21:18;;;;;;;5.47;1.00;;;10.50;99.90;;;;;;5014251;28;20050;-94
2024/03/29 01:23:44;;;;;;;9.07;1.25;;;10.50;99.90;;;;;;5014615;28;20033;-93
2024/03/29 01:26:12;;;;;;;2.75;0.93;;;10.50;99.90;;;;;;5014556;28;20058;-94
2024/03/29 01:28:38;;;;;;;5.07;1.10;;;10.50;99.90;;;;;;5014561;28;20026;-93
2024/03/29 01:31:04;;;;;;;11.75;1.70;;;10.50;99.90;;;;;;5014079;28;20033;-92
2024/03/29 01:33:37;;;;;;;7.30;1.48;;;10.50;99.90;;;;;;5015719;28;20025;-93
2024/03/29 01:36:03;;;;;;;4.82;1.63;;;10.50;99.90;;;;;;5016035;28;20821;-92
2024/03/29 01:38:29;;;;;;;4.95;1.10;;;10.50;99.90;;;;;;4998875;28;20026;-93
2024/03/29 01:40:54;;;;;;;3.55;1.40;;;10.50;99.90;;;;;;4997646;28;20033;-93
2024/03/29 01:43:20;;;;;;;7.57;1.10;;;10.50;99.90;;;;;;4999904;28;20109;-93
2024/03/29 01:45:49;;;;;;;4.65;1.10;;;10.50;99.90;;;;;;5005477;28;20080;-91
2024/03/29 01:48:16;;;;;;;8.90;1.00;;;10.50;99.90;;;;;;4997709;28;20389;-91
2024/03/29 01:50:41;;;;;;;4.22;1.40;;;10.50;99.90;;;;;;4997327;28;20041;-91
2024/03/29 01:53:08;;;;;;;6.75;1.40;;;10.50;99.90;;;;;;4996838;28;20022;-91
2024/03/29 01:55:37;;;;;;;7.90;1.45;;;10.40;99.90;;;;;;5002744;28;20558;-93
2024/03/29 01:58:03;;;;;;;5.55;1.50;;;10.50;99.90;;;;;;4996447;28;20027;-94
2024/03/29 02:00:30;;;;;;;5.40;1.20;;;10.40;99.90;;;;;;5002447;28;20054;-93
2024/03/29 02:02:57;;;;;;;4.03;0.90;;;10.40;99.90;;;;;;5011658;28;20483;-92
2024/03/29 02:05:24;;;;;;;3.55;1.10;;;10.40;99.90;;;;;;4998793;28;20027;-93
2024/03/29 02:07:50;;;;;;;5.75;1.42;;;10.40;99.90;;;;;;4996969;28;20034;-93
2024/03/29 02:10:16;;;;;;;8.80;1.50;;;10.40;99.90;;;;;;4997507;28;20352;-94
2024/03/29 02:12:42;;;;;;;5.40;1.13;;;10.40;99.90;;;;;;5006831;28;20046;-94
2024/03/29 02:15:07;;;;;;;4.05;1.00;;;10.40;99.90;;;;;;5013031;28;20038;-93
2024/03/29 02:17:33;;;;;;;5.63;0.88;;;10.40;99.90;;;;;;5007700;28;20085;-92
2024/03/29 02:19:59;;;;;;;5.32;1.35;;;10.40;99.90;;;;;;4996645;28;20026;-94
2024/03/29 02:22:26;;;;;;;6.50;1.70;;;10.30;99.90;;;;;;4996676;28;20030;-92
2024/03/29 02:24:53;;;;;;;4.82;1.25;;;10.40;99.90;;;;;;4996454;28;20105;-94
2024/03/29 02:27:19;;;;;;;2.03;0.85;;;10.30;99.90;;;;;;4996704;28;20077;-94
2024/03/29 02:29:45;;;;;;;6.47;1.38;;;10.30;99.90;;;;;;4996957;28;20062;-94
2024/03/29 02:32:11;;;;;;;5.03;1.27;;;10.30;99.90;;;;;;4996710;28;20081;-93
2024/03/29 02:34:36;;;;;;;5.30;1.13;;;10.40;99.90;;;;;;4996487;28;20030;-94
2024/03/29 02:37:02;;;;;;;3.53;1.30;;;10.40;99.90;;;;;;5003553;28;20548;-94
2024/03/29 02:39:28;;;;;;;4.60;1.00;;;10.30;99.90;;;;;;5013912;28;20105;-94
2024/03/29 02:41:53;;;;;;;9.38;1.52;;;10.30;99.90;;;;;;5016048;28;20034;-93
2024/03/29 02:44:19;;;;;;;23.48;1.58;;;10.30;99.90;;;;;;5015690;28;20022;-95
2024/03/29 02:46:44;;;;;;;6.95;1.25;;;10.40;99.90;;;;;;5015687;28;20033;-93
2024/03/29 02:49:10;;;;;;;4.47;1.33;;;10.40;99.90;;;;;;5015954;28;20037;-94
2024/03/29 02:51:35;;;;;;;5.55;1.20;;;10.30;99.90;;;;;;5015502;28;20076;-94
2024/03/29 02:54:01;;;;;;;3.03;1.10;;;10.40;99.90;;;;;;5015519;28;20097;-94
2024/03/29 02:56:27;;;;;;;8.35;1.42;;;10.40;99.90;;;;;;5015403;28;20029;-94
2024/03/29 02:58:54;;;;;;;5.65;1.20;;;10.40;99.90;;;;;;5014349;28;20026;-93
2024/03/29 03:01:20;;;;;;;3.13;1.17;;;11.00;99.90;;;;;;5017520;28;20050;-93
2024/03/29 03:03:46;;;;;;;4.75;1.13;;;10.30;99.90;;;;;;5019639;28;20037;-94
2024/03/29 03:06:11;;;;;;;3.08;1.00;;;10.40;99.90;;;;;;5016582;28;20088;-93
2024/03/29 03:11:28;;;;;;;5.10;1.77;;;10.50;99.90;;;;;;4998558;28;20048;-95
2024/03/29 03:13:54;;;;;;;4.88;1.20;;;10.40;99.90;;;;;;5015619;28;20026;-94
2024/03/29 03:16:20;;;;;;;3.60;0.82;;;10.40;99.90;;;;;;5015607;28;20101;-94
2024/03/29 03:18:45;;;;;;;2.38;1.10;;;10.40;99.90;;;;;;5013107;28;20018;-94
2024/03/29 03:21:11;;;;;;;5.53;1.45;;;10.30;99.90;;;;;;4999915;28;20033;-94
2024/03/29 03:23:36;;;;;;;5.75;1.23;;;10.40;99.90;;;;;;5015585;28;20076;-95
2024/03/29 03:26:06;;;;;;;5.03;1.08;;;10.30;99.90;;;;;;5015120;28;20026;-94
2024/03/29 03:28:31;;;;;;;3.75;1.20;;;10.40;99.90;;;;;;4999163;28;20061;-93
2024/03/29 03:30:57;;;;;;;4.47;0.88;;;10.60;99.90;;;;;;5018318;28;20030;-94
2024/03/29 03:33:23;;;;;;;3.80;0.77;;;10.40;99.90;;;;;;5015132;28;20517;-94
2024/03/29 03:35:49;;;;;;;9.13;1.10;;;10.40;99.90;;;;;;5015639;28;20085;-94
2024/03/29 03:38:15;;;;;;;6.75;1.15;;;10.50;99.90;;;;;;5015544;28;20026;-94
2024/03/29 03:40:41;;;;;;;4.82;1.17;;;10.30;99.90;;;;;;5012243;28;20064;-94
2024/03/29 03:43:07;;;;;;;6.68;0.85;;;11.30;99.90;;;;;;5015206;28;20485;-94
2024/03/29 03:45:37;;;;;;;12.40;1.10;;;10.20;99.90;;;;;;5012266;28;20030;-92
2024/03/29 03:48:06;;;;;;;1.52;0.80;;;10.20;99.90;;;;;;4994970;28;20105;-94
2024/03/29 03:50:33;;;;;;;1.97;0.73;;;10.30;99.90;;;;;;4999182;28;20014;-94
2024/03/29 03:52:58;;;;;;;3.65;1.02;;;10.20;99.90;;;;;;5019951;28;20025;-94
2024/03/29 03:55:26;;;;;;;5.32;1.30;;;10.30;99.90;;;;;;5023681;28;20042;-95
2024/03/29 03:57:53;;;;;;;4.95;0.82;;;10.30;99.90;;;;;;5024171;28;20025;-94
2024/03/29 04:00:20;;;;;;;2.75;1.10;;;10.40;99.90;;;;;;5023915;28;20058;-95
2024/03/29 04:02:50;;;;;;;4.60;0.80;;;10.30;99.90;;;;;;5018306;28;20033;-94
2024/03/29 04:05:17;;;;;;;3.30;0.85;;;10.30;99.90;;;;;;5011607;28;20038;-94
2024/03/29 04:07:43;;;;;;;3.38;0.80;;;10.50;99.90;;;;;;5017617;28;20109;-95
2024/03/29 04:10:09;;;;;;;2.20;0.88;;;10.70;99.90;;;;;;5016390;28;20049;-94
2024/03/29 04:12:34;;;;;;;3.00;0.60;;;10.40;99.90;;;;;;5017302;28;20018;-94
2024/03/29 04:15:00;;;;;;;3.47;0.90;;;10.40;99.90;;;;;;5019677;28;20068;-95
2024/03/29 04:17:26;;;;;;;3.90;0.60;;;10.40;99.90;;;;;;5023085;28;20004;-93
2024/03/29 04:19:51;;;;;;;4.97;0.77;;;10.40;99.90;;;;;;5023757;28;20029;-93
2024/03/29 04:22:17;;;;;;;2.17;0.60;;;10.40;99.90;;;;;;5010049;28;20022;-95
2024/03/29 04:24:43;;;;;;;2.38;0.93;;;10.40;99.90;;;;;;5007938;28;20062;-93
2024/03/29 04:27:08;;;;;;;4.40;0.70;;;10.90;99.90;;;;;;4994313;28;20105;-94
2024/03/29 04:29:34;;;;;;;6.43;0.65;;;10.40;99.90;;;;;;4994286;28;20047;-94
2024/03/29 04:31:59;;;;;;;1.98;0.63;;;10.40;99.90;;;;;;4994097;28;20074;-93
2024/03/29 04:34:25;;;;;;;0.68;0.50;;;10.50;99.90;;;;;;4994132;28;20581;-94
2024/03/29 04:36:50;;;;;;;0.50;0.45;;;10.30;99.90;;;;;;4997882;28;20030;-93
2024/03/29 04:39:16;;;;;;;0.43;0.30;;;10.70;99.90;;;;;;5001075;28;20117;-95
2024/03/29 04:41:43;;;;;;;1.15;0.55;;;10.30;99.90;;;;;;5008502;28;20037;-95
2024/03/29 04:44:13;;;;;;;1.08;0.63;;;10.30;99.90;;;;;;5013752;28;20489;-95
2024/03/29 04:46:39;;;;;;;2.72;0.50;;;10.20;99.90;;;;;;5006637;28;20028;-94
2024/03/29 04:49:05;;;;;;;0.60;0.50;;;10.20;99.90;;;;;;5003414;28;20642;-94
2024/03/29 04:51:31;;;;;;;0.50;0.43;;;10.20;99.90;;;;;;4995084;28;20029;-93
2024/03/29 04:53:56;;;;;;;2.65;0.50;;;10.30;99.90;;;;;;4996302;28;20041;-93
2024/03/29 04:56:22;;;;;;;0.90;0.55;;;10.10;99.90;;;;;;5006804;28;20082;-93
2024/03/29 04:58:47;;;;;;;2.58;0.35;;;10.00;99.90;;;;;;5007786;28;20030;-93
2024/03/29 05:01:13;;;;;;;0.98;0.40;;;10.00;99.90;;;;;;4997876;28;20169;-93
2024/03/29 05:03:38;;;;;;;1.38;0.50;;;9.90;99.90;;;;;;4999004;28;20757;-95
2024/03/29 05:06:04;;;;;;;2.15;0.50;;;9.90;99.90;;;;;;5015571;28;20030;-94
2024/03/29 05:08:30;;;;;;;2.15;0.57;;;9.90;99.90;;;;;;5018904;28;20037;-94
2024/03/29 05:10:55;;;;;;;1.40;0.40;;;9.80;99.90;;;;;;5019063;28;20040;-93
2024/03/29 05:13:21;;;;;;;1.25;0.50;;;10.20;99.90;;;;;;5018561;28;20269;-95
2024/03/29 05:15:47;;;;;;;6.47;0.50;;;9.70;99.90;;;;;;5018818;28;20060;-94
2024/03/29 05:18:13;;;;;;;1.45;0.45;;;9.60;99.90;;;;;;5017145;28;20077;-92
2024/03/29 05:20:46;;;;;;;1.58;0.68;;;9.60;99.90;;;;;;5017580;28;20029;-94
2024/03/29 05:23:14;;;;;;;3.20;0.73;;;9.60;99.90;;;;;;5017557;28;20030;-94
2024/03/29 05:25:39;;;;;;;1.17;0.50;;;9.50;99.90;;;;;;5016432;28;20029;-95
2024/03/29 05:28:07;;;;;;;2.10;0.70;;;9.60;99.90;;;;;;5017978;28;20030;-92
2024/03/29 05:30:33;;;;;;;1.00;0.63;;;9.40;99.90;;;;;;5017560;28;20030;-94
2024/03/29 05:32:58;;;;;;;8.10;0.73;;;9.40;99.90;;;;;;5019139;28;20026;-92
2024/03/29 05:35:24;;;;;;;2.30;0.60;;;9.40;99.90;;;;;;5023614;28;20552;-93
2024/03/29 05:37:53;;;;;;;2.47;0.52;;;9.30;99.90;;;;;;5016948;28;20344;-94
2024/03/29 05:40:18;;;;;;;2.45;0.70;;;9.30;99.90;;;;;;5016715;28;20039;-93
2024/03/29 05:42:47;;;;;;;1.73;0.60;;;9.40;99.90;;;;;;5037001;28;20013;-93
2024/03/29 05:45:29;;;;;;;4.10;1.10;;;9.80;99.90;;;;;;5025945;28;20033;-93
2024/03/29 05:47:56;;;;;;;2.35;0.68;;;9.30;99.90;;;;;;5016663;28;20183;-93
2024/03/29 05:50:23;;;;;;;2.55;0.60;;;9.30;99.90;;;;;;5027671;28;20026;-92
2024/03/29 05:52:52;;;;;;;2.83;0.70;;;9.30;99.90;;;;;;5026679;28;20029;-92
2024/03/29 05:55:18;;;;;;;2.45;0.68;;;9.20;99.90;;;;;;5018192;28;20041;-93
2024/03/29 05:57:48;;;;;;;0.65;0.50;;;9.20;99.90;;;;;;5016487;28;20022;-92
2024/03/29 06:00:14;;;;;;;1.40;0.83;;;9.20;99.90;;;;;;5016654;28;20065;-93
2024/03/29 06:02:40;;;;;;;2.08;0.70;;;9.20;99.90;;;;;;5017057;28;20033;-92
2024/03/29 06:05:06;;;;;;;2.92;0.82;;;9.20;99.90;;;;;;5016946;28;20026;-94
2024/03/29 06:07:33;;;;;;;3.45;0.90;;;9.10;99.90;;;;;;5015764;28;20053;-92
2024/03/29 06:10:01;;;;;;;5.32;0.73;;;9.10;99.90;;;;;;5014098;28;20014;-94
2024/03/29 06:12:27;;;;;;;1.02;0.80;;;9.30;99.90;;;;;;5008751;28;20045;-92
2024/03/29 06:17:41;;;;;;;3.65;0.85;;;9.10;99.90;;;;;;5013538;28;20069;-93
2024/03/29 06:20:07;;;;;;;3.53;0.90;;;9.10;99.90;;;;;;5014984;28;20482;-93
2024/03/29 06:22:33;;;;;;;4.70;0.93;;;9.00;99.90;;;;;;5014175;28;20049;-93
2024/03/29 06:25:04;;;;;;;1.83;0.90;;;9.00;99.90;;;;;;5015015;28;20026;-95
2024/03/29 06:27:34;;;;;;;2.55;0.60;;;8.90;99.90;;;;;;5013207;28;20373;-93
2024/03/29 06:30:00;;;;;;;4.70;1.10;;;8.90;99.90;;;;;;5018092;28;20026;-92
2024/03/29 06:32:27;;;;;;;3.53;0.77;;;8.90;99.90;;;;;;5005519;28;20034;-96
2024/03/29 06:35:03;;;;;;;3.15;1.15;;;8.90;99.90;;;;;;5014708;28;20329;-94
2024/03/29 06:37:29;;;;;;;1.52;0.70;;;9.10;99.90;;;;;;5015846;28;20024;-94
2024/03/29 06:39:54;;;;;;;1.42;0.75;;;10.50;99.90;;;;;;5002786;28;20022;-96
2024/03/29 06:42:23;;;;;;;3.20;0.85;;;10.50;99.90;;;;;;5015531;28;20163;-93
2024/03/29 06:44:48;;;;;;;4.63;1.08;;;9.10;99.90;;;;;;5033051;28;20033;-94
2024/03/29 06:47:14;;;;;;;3.67;0.93;;;10.70;99.90;;;;;;5018236;28;20030;-93
2024/03/29 06:49:40;;;;;;;4.38;1.38;;;10.80;99.90;;;;;;5023826;28;20030;-91
2024/03/29 06:52:10;;;;;;;1.50;0.60;;;11.00;99.90;;;;;;5023039;28;20040;-92
2024/03/29 06:54:35;;;;;;;3.67;1.00;;;10.40;99.90;;;;;;5012180;28;20038;-93
2024/03/29 06:57:02;;;;;;;2.10;0.80;;;9.00;99.90;;;;;;5019380;28;20080;-92
2024/03/29 06:59:29;;;;;;;2.08;0.80;;;9.10;99.90;;;;;;5023413;28;20026;-95
2024/03/29 07:01:54;;;;;;;3.85;0.80;;;10.50;99.90;;;;;;5016445;28;20173;-94
2024/03/29 07:04:24;;;;;;;3.20;0.88;;;9.00;99.90;;;;;;5011455;28;20421;-95
2024/03/29 07:07:02;;;;;;;1.20;0.70;;;10.40;99.90;;;;;;5000147;28;20022;-94
2024/03/29 07:09:28;;;;;;;1.60;0.80;;;9.10;99.90;;;;;;5016944;28;20025;-94
2024/03/29 07:11:54;;;;;;;0.90;0.60;;;10.80;99.90;;;;;;5016389;28;20017;-93
2024/03/29 07:14:20;;;;;;;1.85;0.90;;;9.80;99.90;;;;;;5015634;28;20116;-92
2024/03/29 07:16:46;;;;;;;1.73;0.70;;;10.10;99.90;;;;;;5004610;28;20023;-92
2024/03/29 07:19:18;;;;;;;2.55;0.70;;;8.60;99.90;;;;;;5010966;28;20027;-94
2024/03/29 07:21:45;;;;;;;1.67;0.70;;;9.40;99.90;;;;;;5016597;28;20045;-92
2024/03/29 07:24:11;;;;;;;1.33;0.80;;;10.90;99.90;;;;;;4996180;28;20445;-94
2024/03/29 07:26:38;;;;;;;0.77;0.50;;;9.40;99.90;;;;;;4996613;28;20042;-95
2024/03/29 07:29:10;;;;;;;0.90;0.60;;;9.70;99.90;;;;;;4999382;28;20030;-92
2024/03/29 07:31:36;;;;;;;2.47;0.60;;;10.70;99.90;;;;;;5020758;28;20026;-92
2024/03/29 07:34:01;;;;;;;1.35;0.57;;;11.20;99.90;;;;;;5028614;28;20042;-94
2024/03/29 07:36:31;;;;;;;0.63;0.45;;;9.50;99.90;;;;;;5006356;28;20035;-94
2024/03/29 07:38:58;;;;;;;2.67;0.80;;;11.20;99.90;;;;;;5032967;28;20025;-92
2024/03/29 07:41:24;;;;;;;1.23;0.40;;;11.20;99.90;;;;;;5026843;28;20026;-94
2024/03/29 07:44:08;;;;;;;2.80;0.55;;;10.30;99.90;;;;;;5017455;28;20105;-95
2024/03/29 07:46:37;;;;;;;0.60;0.40;;;11.10;99.90;;;;;;5019165;28;20034;-92
2024/03/29 07:49:31;;;;;;;0.90;0.60;;;10.80;99.90;;;;;;5019148;28;20002;-94
2024/03/29 07:52:09;;;;;;;2.10;0.60;;;9.50;99.90;;;;;;5020990;28;20038;-93
2024/03/29 07:57:08;;;;;;;2.58;0.60;;;9.70;99.90;;;;;;4983585;28;20051;-94
2024/03/29 07:59:34;;;;;;;4.07;0.80;;;11.70;99.90;;;;;;4976996;28;20030;-91
2024/03/29 08:02:02;;;;;;;0.75;0.75;;;11.10;99.90;;;;;;4975374;28;20371;-93
2024/03/29 08:04:27;;;;;;;2.50;0.60;;;11.40;99.90;;;;;;4976109;28;20035;-93
2024/03/29 08:06:53;;;;;;;2.42;0.50;;;9.90;99.90;;;;;;4976603;28;20023;-93
2024/03/29 08:09:19;;;;;;;0.50;0.50;;;9.10;99.90;;;;;;4984877;28;20037;-92
2024/03/29 08:11:45;;;;;;;3.92;0.52;;;10.70;99.90;;;;;;4974286;28;20098;-91
2024/03/29 08:14:10;;;;;;;1.35;0.43;;;9.60;99.90;;;;;;4976455;28;20084;-94
2024/03/29 08:16:36;;;;;;;0.93;0.40;;;9.10;99.90;;;;;;4976131;28;20038;-94
2024/03/29 08:19:02;;;;;;;2.47;0.57;;;11.00;99.90;;;;;;4978331;28;20019;-94
2024/03/29 08:21:28;;;;;;;3.20;0.80;;;11.60;99.90;;;;;;4976260;28;20062;-94
2024/03/29 08:23:56;;;;;;;2.42;0.60;;;9.40;99.90;;;;;;4980744;28;20106;-93
2024/03/29 08:26:22;;;;;;;1.38;0.82;;;11.80;99.90;;;;;;4977958;28;20019;-93
2024/03/29 08:28:51;;;;;;;1.33;0.47;;;11.90;99.90;;;;;;4962242;28;20062;-92
2024/03/29 08:31:16;;;;;;;1.25;1.00;;;11.90;99.90;;;;;;4962225;29;20056;-92
2024/03/29 08:33:49;;;;;;;0.73;0.60;;;9.90;99.90;;;;;;4957952;29;20036;-89
2024/03/29 08:36:15;;;;;;;1.05;0.40;;;11.00;99.90;;;;;;4957255;28;20033;-87
2024/03/29 08:38:43;;;;;;;1.67;1.00;;;11.50;99.90;;;;;;4972315;28;20102;-88
2024/03/29 08:41:12;;;;;;;1.63;0.82;;;10.60;99.90;;;;;;4973119;28;20027;-91
2024/03/29 08:43:54;;;;;;;0.68;0.60;;;11.40;99.90;;;;;;4978073;28;20061;-92
2024/03/29 08:46:19;;;;;;;0.82;0.68;;;10.20;99.90;;;;;;4985428;28;20054;-93
2024/03/29 08:48:57;;;;;;;1.02;0.57;;;10.30;99.90;;;;;;4982370;28;20034;-93
2024/03/29 08:51:23;;;;;;;8.35;0.80;;;12.40;99.90;;;;;;4987283;28;20027;-93
2024/03/29 08:54:04;;;;;;;1.92;0.80;;;11.70;99.90;;;;;;4979882;28;20030;-93
2024/03/29 08:56:36;;;;;;;1.30;0.65;;;10.50;99.90;;;;;;4991459;28;20045;-94
2024/03/29 08:59:07;;;;;;;1.58;0.70;;;10.30;99.90;;;;;;5211286;23;20053;-94
2024/03/29 09:01:33;;;;;;;0.73;0.50;;;10.30;99.90;;;;;;5035058;28;20049;-91
2024/03/29 09:04:11;;;;;;;0.38;0.32;;;10.60;99.90;;;;;;5021184;28;20045;-92
2024/03/29 09:06:42;;;;;;;0.98;0.38;;;12.20;99.90;;;;;;4960265;28;20030;-91
2024/03/29 09:09:08;;;;;;;1.70;0.50;;;10.80;99.90;;;;;;5011431;28;20478;-90
2024/03/29 09:11:34;;;;;;;0.52;0.50;;;10.70;99.90;;;;;;5012815;28;20033;-90
2024/03/29 09:14:04;;;;;;;1.27;0.50;;;12.30;99.90;;;;;;5013161;28;20426;-86
2024/03/29 09:16:30;;;;;;;2.13;0.50;;;12.30;99.90;;;;;;5013030;28;20036;-91
2024/03/29 09:18:56;;;;;;;0.57;0.35;;;10.50;99.90;;;;;;5017633;28;20033;-89
2024/03/29 09:21:21;;;;;;;0.52;0.40;;;10.60;99.90;;;;;;5024601;28;20022;-89
2024/03/29 09:23:52;;;;;;;0.65;0.40;;;10.60;99.90;;;;;;5026114;28;20029;-92
2024/03/29 09:26:18;;;;;;;0.38;0.30;;;10.80;99.90;;;;;;5026487;28;20078;-93
2024/03/29 09:28:44;;;;;;;1.90;0.60;;;11.50;99.90;;;;;;5221554;23;20062;-93
2024/03/29 09:31:10;;;;;;;1.20;0.35;;;10.60;99.90;;;;;;5004810;28;20031;-93
2024/03/29 09:33:35;;;;;;;1.65;0.50;;;11.40;99.90;;;;;;5005685;28;20077;-94
2024/03/29 09:36:02;;;;;;;1.60;0.70;;;11.70;99.90;;;;;;5005835;28;20031;-94
2024/03/29 09:38:31;;;;;;;0.98;0.40;;;10.20;99.90;;;;;;5000121;28;20031;-93
2024/03/29 09:41:15;;;;;;;2.10;0.60;;;11.00;99.90;;;;;;4999142;28;20035;-93
2024/03/29 09:43:44;;;;;;;1.60;0.60;;;11.90;99.90;;;;;;4996870;28;20176;-90
2024/03/29 09:46:10;;;;;;;0.50;0.47;;;11.10;99.90;;;;;;4995271;28;20022;-88
2024/03/29 09:48:40;;;;;;;1.13;0.90;;;12.00;99.90;;;;;;4994621;28;20029;-91
2024/03/29 09:51:07;;;;;;;2.33;0.88;;;11.70;99.90;;;;;;5007761;28;20037;-94
2024/03/29 09:53:35;;;;;;;1.67;0.95;;;10.50;99.90;;;;;;4995601;28;20031;-91
2024/03/29 09:56:04;;;;;;;4.72;1.27;;;12.40;99.90;;;;;;4995013;28;20026;-89
2024/03/29 09:58:30;;;;;;;1.88;0.93;;;10.80;99.90;;;;;;4997476;28;20038;-91
2024/03/29 10:00:56;;;;;;;1.25;1.13;;;10.80;99.90;;;;;;4990145;28;20042;-88
2024/03/29 10:03:28;;;;;;;1.15;1.00;;;10.80;99.90;;;;;;4978386;28;20023;-92
2024/03/29 10:05:56;;;;;;;3.88;1.58;;;10.90;99.90;;;;;;4984784;28;20030;-91
2024/03/29 10:08:22;;;;;;;6.75;1.20;;;10.90;99.90;;;;;;4979898;28;20138;-90
2024/03/29 10:10:49;;;;;;;3.05;1.67;;;11.00;99.90;;;;;;5000449;28;20081;-91
2024/03/29 10:13:14;;;;;;;1.65;1.52;;;11.00;99.90;;;;;;4997220;28;20026;-90
2024/03/29 10:15:45;;;;;;;3.13;1.75;;;11.20;99.90;;;;;;4981972;28;20055;-92
2024/03/29 10:18:11;;;;;;;4.55;1.90;;;11.00;99.90;;;;;;4988267;28;20039;-90
2024/03/29 10:20:36;;;;;;;3.30;1.90;;;11.20;99.90;;;;;;4991803;28;20110;-90
2024/03/29 10:23:05;;;;;;;3.88;1.30;;;11.20;99.90;;;;;;4988022;28;20485;-92
2024/03/29 10:25:34;;;;;;;3.15;1.80;;;11.30;99.90;;;;;;4995197;28;20053;-90
2024/03/29 10:28:01;;;;;;;3.42;1.65;;;11.30;99.90;;;;;;4995335;28;20074;-87
2024/03/29 10:30:30;;;;;;;1.63;1.23;;;11.30;99.90;;;;;;4993535;28;20031;-90
2024/03/29 10:33:05;;;;;;;3.10;1.88;;;11.30;99.90;;;;;;4992786;28;20030;-86
2024/03/29 10:35:31;;;;;;;2.42;1.50;;;12.30;99.90;;;;;;4994703;28;20034;-91
2024/03/29 10:37:56;;;;;;;3.72;2.08;;;11.00;99.90;;;;;;4996144;28;20505;-90
2024/03/29 10:40:25;;;;;;;2.78;1.48;;;13.10;99.90;;;;;;4990273;28;20047;-90
2024/03/29 10:42:54;;;;;;;2.00;1.40;;;11.60;99.90;;;;;;4992030;28;20038;-87
2024/03/29 10:45:22;;;;;;;1.73;1.13;;;13.20;99.90;;;;;;4987641;28;20077;-86
2024/03/29 10:47:53;;;;;;;2.38;2.05;;;11.60;99.90;;;;;;4990329;28;20372;-87
2024/03/29 10:50:21;;;;;;;3.65;1.67;;;11.90;99.90;;;;;;4995538;28;20061;-89
2024/03/29 10:52:48;;;;;;;4.28;1.75;;;12.30;99.90;;;;;;4996270;28;20030;-89
2024/03/29 10:55:24;;;;;;;5.50;1.73;;;11.30;99.90;;;;;;4994319;28;20089;-88
2024/03/29 10:57:53;;;;;;;2.53;1.73;;;12.90;99.90;;;;;;4993345;28;20030;-89
2024/03/29 11:00:20;;;;;;;4.30;1.73;;;11.60;99.90;;;;;;4994273;28;20054;-88
2024/03/29 11:02:51;;;;;;;3.13;2.00;;;11.70;99.90;;;;;;4993803;28;20042;-91
2024/03/29 11:05:18;;;;;;;5.80;1.80;;;11.80;99.90;;;;;;4993295;28;20031;-88
2024/03/29 11:07:45;;;;;;;3.15;2.10;;;11.80;99.90;;;;;;4997286;28;20054;-89
2024/03/29 11:10:20;;;;;;;4.28;2.40;;;11.80;99.90;;;;;;4991331;28;20034;-89
2024/03/29 11:13:16;;;;;;;5.07;2.55;;;11.80;99.90;;;;;;4986106;28;20059;-88
2024/03/29 11:15:44;;;;;;;3.58;2.72;;;11.90;99.90;;;;;;4969829;28;20613;-89
2024/03/29 11:18:11;;;;;;;3.15;2.63;;;11.90;99.90;;;;;;4979884;28;20023;-91
2024/03/29 11:20:39;;;;;;;5.05;3.20;;;11.90;99.90;;;;;;4981169;28;20053;-91
2024/03/29 11:23:10;;;;;;;3.42;3.13;;;11.90;99.90;;;;;;4979785;28;20030;-92
2024/03/29 11:25:43;;;;;;;4.70;3.25;;;11.80;99.90;;;;;;4988599;28;20030;-92
2024/03/29 11:28:13;;;;;;;3.28;2.97;;;12.10;99.90;;;;;;4995974;28;20050;-91
2024/03/29 11:30:45;;;;;;;3.22;2.92;;;12.10;99.90;;;;;;5003871;28;20034;-93
2024/03/29 11:33:33;;;;;;;4.30;3.38;;;12.20;99.90;;;;;;4994808;28;20030;-92
2024/03/29 11:36:11;;;;;;;3.55;2.80;;;11.80;99.90;;;;;;5010446;28;20116;-93
2024/03/29 11:38:37;;;;;;;2.95;2.65;;;12.40;99.90;;;;;;5015101;28;20036;-92
2024/03/29 11:41:05;;;;;;;3.53;1.80;;;12.50;99.90;;;;;;5013622;28;20488;-92
2024/03/29 11:43:35;;;;;;;3.50;1.90;;;12.50;99.90;;;;;;5013468;28;20027;-92
2024/03/29 11:46:03;;;;;;;4.30;2.35;;;12.40;99.90;;;;;;5006729;28;20022;-92
2024/03/29 11:48:33;;;;;;;5.03;1.55;;;12.50;99.90;;;;;;5014588;28;20026;-92
2024/03/29 11:50:59;;;;;;;2.67;1.33;;;12.50;99.90;;;;;;5015169;28;20026;-92
2024/03/29 11:53:25;;;;;;;2.90;1.65;;;12.50;99.90;;;;;;4998436;28;20039;-93
2024/03/29 11:55:53;;;;;;;1.30;1.20;;;13.40;99.90;;;;;;4983531;28;20057;-91
2024/03/29 11:58:26;;;;;;;1.80;1.48;;;12.50;99.90;;;;;;4989454;28;20037;-92
2024/03/29 12:00:53;;;;;;;1.58;1.35;;;12.50;99.90;;;;;;4994275;28;20033;-92
2024/03/29 12:03:20;;;;;;;2.05;1.58;;;12.60;99.90;;;;;;4994322;28;20034;-92
2024/03/29 12:05:47;;;;;;;1.20;0.98;;;12.60;99.90;;;;;;5013844;28;20014;-91
2024/03/29 12:08:16;;;;;;;3.83;1.15;;;12.60;99.90;;;;;;4999621;28;20030;-92
2024/03/29 12:10:42;;;;;;;2.55;1.20;;;12.60;99.90;;;;;;4994530;28;20026;-93
2024/03/29 12:13:08;;;;;;;1.42;1.10;;;13.10;99.90;;;;;;4995130;28;20030;-92
2024/03/29 12:15:34;;;;;;;1.95;1.30;;;12.60;99.90;;;;;;4993899;28;20513;-92
2024/03/29 12:18:04;;;;;;;3.63;1.27;;;14.00;99.90;;;;;;5001694;28;20022;-92
2024/03/29 12:20:30;;;;;;;1.33;1.23;;;13.10;99.90;;;;;;5012636;28;20038;-92
2024/03/29 12:22:58;;;;;;;1.83;1.50;;;13.60;99.90;;;;;;4992920;28;20030;-93
2024/03/29 12:25:25;;;;;;;5.38;1.25;;;13.00;99.90;;;;;;4993191;28;20046;-92
2024/03/29 12:27:52;;;;;;;3.85;1.42;;;12.70;99.90;;;;;;4996097;28;20046;-93
2024/03/29 12:30:18;;;;;;;4.28;1.52;;;12.90;99.90;;;;;;5006836;28;20094;-92
2024/03/29 12:33:06;;;;;;;2.65;1.50;;;12.80;99.90;;;;;;5002006;28;20034;-92
2024/03/29 12:35:33;;;;;;;1.73;1.63;;;12.80;99.90;;;;;;5012118;28;20034;-92
2024/03/29 12:38:08;;;;;;;3.60;1.33;;;13.30;99.90;;;;;;4995744;28;20042;-92
2024/03/29 12:40:39;;;;;;;2.47;1.70;;;12.90;99.90;;;;;;4997183;28;20036;-92
2024/03/29 12:43:07;;;;;;;1.88;1.63;;;12.90;99.90;;;;;;4996058;28;20049;-91
2024/03/29 12:45:38;;;;;;;2.88;1.50;;;12.90;99.90;;;;;;4994564;28;20081;-90
2024/03/29 12:48:16;;;;;;;5.28;1.70;;;12.90;99.90;;;;;;5015977;28;20034;-92
2024/03/29 12:50:43;;;;;;;2.97;1.80;;;13.00;99.90;;;;;;5015103;28;20026;-92
2024/03/29 12:53:11;;;;;;;1.50;1.40;;;13.00;99.90;;;;;;5015774;28;20432;-91
2024/03/29 12:55:39;;;;;;;2.05;1.80;;;13.00;99.90;;;;;;5009152;28;20006;-92
2024/03/29 12:58:09;;;;;;;1.65;1.42;;;13.00;99.90;;;;;;4991377;28;20383;-91